»·PEaware :: N516TT S36-KORS

N516TT :: S36-KORS

FLIGHT INFORMATION

Flight Status: Arrived
Operator: Privately registered:
United States
More flights under this callsign
Pilot: Gareth S. (19921)
Aircraft: CIRRUS SR-22 TURBO
(S22T)
More flights by this aircraft type
Origin: S36 Norman Grier Field
United States
Destination: KORS Orcas Island
United States
More flights between these airports :: More routes between these airports
Route:
File this flight plan on PilotEdge
Remarks:
Altitude:
(Current/Filed)
4,500ft
Speed:
(Current/Filed)
150kts
Departed: 29-Aug-20 01:28 PM
Arrived: 29-Aug-20 04:17 PM
Distance/Time
Traveled:
88nm/2:48
Distance/Time
To Go:
Arrived

Flight Plot

Page will automatically refresh every two minutes.

Flight plan parsing failed; only flown route is shown


Map Options




Map Legend


Flown Route
Filed Route
Departure Airport
Arrival Airport
Navaid (VOR, NDB)
Fix

Horizontal Profiles

Position Reports

Time Latitude Longitude Heading Altitude Ground
Speed
29-Aug-20 12:16 47.341016 -122.103367 261 475ft 0kts
29-Aug-20 12:16 47.341016 -122.103367 261 475ft 0kts
29-Aug-20 12:17 47.341016 -122.103367 261 475ft 0kts
29-Aug-20 12:18 47.341016 -122.103367 261 475ft 0kts
29-Aug-20 12:19 47.341016 -122.103367 261 475ft 0kts
29-Aug-20 12:20 47.341016 -122.103367 261 475ft 0kts
29-Aug-20 12:21 47.341016 -122.103367 261 475ft 0kts
29-Aug-20 12:22 47.341016 -122.103367 261 475ft 0kts
29-Aug-20 12:23 47.341016 -122.103367 261 475ft 0kts
29-Aug-20 12:24 47.341016 -122.103367 261 475ft 0kts
29-Aug-20 12:25 47.341016 -122.103367 261 475ft 0kts
29-Aug-20 12:26 47.341016 -122.103367 261 475ft 0kts
29-Aug-20 12:27 47.341016 -122.103367 261 475ft 0kts
29-Aug-20 12:28 47.341016 -122.103367 261 475ft 0kts
29-Aug-20 12:29 47.341016 -122.103367 261 475ft 0kts
29-Aug-20 12:30 47.341016 -122.103367 261 475ft 0kts
29-Aug-20 12:31 47.341016 -122.103367 261 475ft 0kts
29-Aug-20 12:32 47.341016 -122.103367 261 475ft 0kts
29-Aug-20 12:33 47.341016 -122.103367 261 475ft 0kts
29-Aug-20 12:34 47.341016 -122.103367 261 475ft 0kts
29-Aug-20 12:35 47.341016 -122.103367 261 475ft 0kts
29-Aug-20 12:36 47.341016 -122.103367 261 475ft 0kts
29-Aug-20 12:37 47.341016 -122.103367 261 475ft 0kts
29-Aug-20 12:38 47.341016 -122.103367 261 475ft 0kts
29-Aug-20 12:39 47.341016 -122.103367 261 475ft 0kts
29-Aug-20 12:40 47.341016 -122.103367 261 475ft 0kts
29-Aug-20 12:41 47.341016 -122.103367 261 475ft 0kts
29-Aug-20 12:42 47.341016 -122.103367 261 475ft 0kts
29-Aug-20 12:43 47.341016 -122.103367 261 475ft 0kts
29-Aug-20 12:44 47.341016 -122.103367 261 475ft 0kts
29-Aug-20 12:45 47.341016 -122.103367 261 475ft 0kts
29-Aug-20 12:46 47.341016 -122.103367 261 475ft 0kts
29-Aug-20 12:47 47.341016 -122.103367 261 475ft 0kts
29-Aug-20 12:48 47.341016 -122.103367 261 475ft 0kts
29-Aug-20 12:49 47.341016 -122.103367 261 475ft 0kts
29-Aug-20 12:50 47.341016 -122.103367 261 475ft 0kts
29-Aug-20 12:51 47.341016 -122.103367 261 475ft 0kts
29-Aug-20 12:52 47.341016 -122.103367 261 475ft 0kts
29-Aug-20 12:53 47.341016 -122.103367 261 475ft 0kts
29-Aug-20 12:54 47.341016 -122.103367 261 475ft 0kts
29-Aug-20 12:55 47.341016 -122.103367 261 475ft 0kts
29-Aug-20 12:56 47.341016 -122.103367 261 475ft 0kts
29-Aug-20 12:57 47.341016 -122.103367 261 475ft 0kts
29-Aug-20 12:58 47.341016 -122.103367 261 475ft 0kts
29-Aug-20 12:59 47.341016 -122.103368 261 475ft 0kts
29-Aug-20 13:00 47.341016 -122.103368 261 475ft 0kts
29-Aug-20 13:01 47.341016 -122.103368 261 475ft 0kts
29-Aug-20 13:02 47.341016 -122.103368 261 475ft 0kts
29-Aug-20 13:03 47.341016 -122.103368 261 475ft 0kts
29-Aug-20 13:04 47.341016 -122.103368 261 475ft 0kts
29-Aug-20 13:05 47.341016 -122.103368 261 475ft 0kts
29-Aug-20 13:06 47.341016 -122.103368 261 475ft 0kts
29-Aug-20 13:07 47.341016 -122.103368 261 475ft 0kts
29-Aug-20 13:08 47.341016 -122.103368 261 475ft 0kts
29-Aug-20 13:09 47.341016 -122.103368 261 475ft 0kts
29-Aug-20 13:10 47.341016 -122.103368 261 475ft 0kts
29-Aug-20 13:11 47.341016 -122.103368 261 475ft 0kts
29-Aug-20 13:12 47.341016 -122.103368 261 475ft 0kts
29-Aug-20 13:13 47.341016 -122.103368 261 475ft 0kts
29-Aug-20 13:14 47.341016 -122.103368 261 475ft 0kts
29-Aug-20 13:15 47.341016 -122.103368 261 475ft 0kts
29-Aug-20 13:16 47.341016 -122.103368 261 475ft 0kts
29-Aug-20 13:17 47.341016 -122.103368 261 475ft 0kts
29-Aug-20 13:18 47.341016 -122.103368 261 475ft 0kts
29-Aug-20 13:19 47.341016 -122.103368 261 475ft 0kts
29-Aug-20 13:20 47.341016 -122.103368 261 475ft 0kts
29-Aug-20 13:21 47.341016 -122.103368 261 475ft 0kts
29-Aug-20 13:22 47.341016 -122.103368 261 475ft 0kts
29-Aug-20 13:23 47.341018 -122.103391 294 475ft 0kts
29-Aug-20 13:24 47.341220 -122.104173 343 475ft 0kts
29-Aug-20 13:25 47.341490 -122.104281 289 475ft 0kts
29-Aug-20 13:26 47.341490 -122.104281 289 475ft 0kts
29-Aug-20 13:27 47.333527 -122.102957 172 662ft 90kts
29-Aug-20 13:28 47.324309 -122.086209 352 1438ft 100kts
29-Aug-20 13:29 47.355341 -122.100202 328 1678ft 138kts
29-Aug-20 13:30 47.388982 -122.123213 282 2188ft 130kts
29-Aug-20 13:31 47.395190 -122.114190 341 2185ft 153kts
29-Aug-20 13:32 47.433295 -122.131469 351 2546ft 142kts
29-Aug-20 13:33 47.463769 -122.150070 305 2704ft 141kts
29-Aug-20 13:34 47.478053 -122.204598 285 2343ft 151kts
29-Aug-20 13:35 47.497134 -122.258455 303 821ft 140kts
29-Aug-20 13:36 47.516516 -122.291030 329 64ft 85kts
29-Aug-20 13:37 47.537704 -122.307612 334 360ft 84kts
29-Aug-20 13:38 47.567912 -122.307175 28 1029ft 139kts
29-Aug-20 13:39 47.604175 -122.277365 25 1184ft 159kts
29-Aug-20 13:40 47.643644 -122.247477 25 1181ft 161kts
29-Aug-20 13:41 47.683099 -122.217578 25 1181ft 160kts
29-Aug-20 13:42 47.712331 -122.177560 58 1867ft 136kts
29-Aug-20 13:43 47.749178 -122.158945 2 1660ft 164kts
29-Aug-20 13:44 47.791090 -122.144575 50 1492ft 159kts
29-Aug-20 13:45 47.820811 -122.107877 5 1715ft 147kts
29-Aug-20 13:46 47.860465 -122.101332 6 2180ft 141kts
29-Aug-20 13:47 47.899659 -122.093995 5 2517ft 152kts
29-Aug-20 13:48 47.942525 -122.086083 6 2510ft 160kts
29-Aug-20 13:50 47.986570 -122.078512 1 2528ft 159kts
29-Aug-20 13:51 48.014934 -122.110146 269 2415ft 167kts
29-Aug-20 13:52 48.005199 -122.173877 219 2107ft 173kts
29-Aug-20 13:53 47.990214 -122.157234 14 2277ft 148kts
29-Aug-20 13:54 48.028236 -122.135968 20 2514ft 152kts
29-Aug-20 13:55 48.069947 -122.138054 348 2484ft 158kts
29-Aug-20 13:56 48.113375 -122.145319 352 2481ft 158kts
29-Aug-20 13:57 48.156873 -122.152985 348 2482ft 158kts
29-Aug-20 13:58 48.198595 -122.163451 348 2483ft 158kts
29-Aug-20 13:59 48.243299 -122.174622 349 2481ft 158kts
29-Aug-20 14:00 48.286842 -122.185477 349 2481ft 158kts
29-Aug-20 14:01 48.330369 -122.196238 349 2481ft 158kts
29-Aug-20 14:02 48.373910 -122.207311 349 2481ft 159kts
29-Aug-20 14:03 48.417390 -122.218456 349 2481ft 159kts
29-Aug-20 14:04 48.461083 -122.229660 349 2481ft 159kts
29-Aug-20 14:05 48.504736 -122.240798 349 2481ft 159kts
29-Aug-20 14:05 48.541403 -122.235555 6 2481ft 159kts
29-Aug-20 14:07 48.592703 -122.225127 6 2481ft 160kts
29-Aug-20 14:08 48.634532 -122.207978 14 2024ft 149kts
29-Aug-20 14:08 48.665378 -122.187836 30 1368ft 131kts
29-Aug-20 14:09 48.689536 -122.167826 9 1155ft 82kts
29-Aug-20 14:11 48.708662 -122.192794 333 405ft 82kts
29-Aug-20 14:11 48.728738 -122.204162 347 1167ft 100kts
29-Aug-20 14:12 48.763999 -122.201585 13 1522ft 150kts
29-Aug-20 14:13 48.758874 -122.221174 165 2415ft 136kts
29-Aug-20 14:14 48.779528 -122.188361 14 2089ft 159kts
29-Aug-20 14:15 48.809709 -122.208465 269 2276ft 116kts
29-Aug-20 14:16 48.830479 -122.230595 283 1766ft 119kts
29-Aug-20 14:17 48.832078 -122.265966 179 1660ft 95kts
29-Aug-20 14:18 48.842053 -122.275959 255 1249ft 105kts
29-Aug-20 14:19 48.860727 -122.308350 323 1155ft 108kts
29-Aug-20 14:20 48.887975 -122.329663 344 959ft 104kts
29-Aug-20 14:21 48.871127 -122.341012 162 858ft 115kts
29-Aug-20 14:22 48.876719 -122.328853 358 375ft 75kts
29-Aug-20 14:23 48.888849 -122.328845 323 114ft 0kts
29-Aug-20 14:24 48.886984 -122.328719 182 117ft 21kts
29-Aug-20 14:25 48.884505 -122.328321 311 119ft 0kts
29-Aug-20 14:26 48.884505 -122.328321 311 119ft 0kts
29-Aug-20 14:27 48.884505 -122.328321 311 119ft 0kts
29-Aug-20 14:28 48.884505 -122.328321 311 119ft 0kts
29-Aug-20 14:29 48.884505 -122.328321 311 119ft 0kts
29-Aug-20 14:30 48.884505 -122.328321 311 119ft 0kts
29-Aug-20 14:31 48.884505 -122.328321 311 119ft 0kts
29-Aug-20 14:32 48.884505 -122.328321 311 119ft 0kts
29-Aug-20 14:33 48.884505 -122.328321 311 119ft 0kts
29-Aug-20 14:34 48.884505 -122.328321 311 119ft 0kts
29-Aug-20 14:35 48.884505 -122.328321 311 119ft 0kts
29-Aug-20 14:36 48.884505 -122.328321 311 119ft 0kts
29-Aug-20 14:37 48.884505 -122.328321 311 119ft 0kts
29-Aug-20 14:38 48.884505 -122.328321 311 119ft 0kts
29-Aug-20 14:39 48.884505 -122.328321 311 119ft 0kts
29-Aug-20 14:40 48.884505 -122.328321 311 119ft 0kts
29-Aug-20 14:41 48.884505 -122.328321 311 119ft 0kts
29-Aug-20 14:42 48.884505 -122.328321 311 119ft 0kts
29-Aug-20 14:43 48.884505 -122.328321 311 119ft 0kts
29-Aug-20 14:44 48.884505 -122.328321 311 119ft 0kts
29-Aug-20 14:45 48.884505 -122.328321 311 119ft 0kts
29-Aug-20 14:46 48.884505 -122.328321 311 119ft 0kts
29-Aug-20 14:47 48.884505 -122.328321 311 119ft 0kts
29-Aug-20 14:48 48.884505 -122.328321 311 119ft 0kts
29-Aug-20 14:49 48.885955 -122.328766 351 118ft 11kts
29-Aug-20 14:50 48.888845 -122.328669 189 114ft 0kts
29-Aug-20 14:51 48.888845 -122.328669 189 114ft 0kts
29-Aug-20 14:52 48.887112 -122.328726 180 117ft 58kts
29-Aug-20 14:53 48.864383 -122.321474 109 1077ft 112kts
29-Aug-20 14:54 48.889325 -122.318536 332 1269ft 140kts
29-Aug-20 14:55 48.923302 -122.351160 306 1254ft 149kts
29-Aug-20 14:56 48.952253 -122.401067 298 1252ft 156kts
29-Aug-20 14:57 48.956045 -122.457100 264 310ft 98kts
29-Aug-20 14:58 48.949216 -122.470251 115 878ft 101kts
29-Aug-20 14:59 48.947402 -122.422524 55 1548ft 114kts
29-Aug-20 15:00 48.955719 -122.446178 264 345ft 83kts
29-Aug-20 15:01 48.955847 -122.462640 125 110ft 7kts
29-Aug-20 15:02 48.955647 -122.455530 88 110ft 17kts
29-Aug-20 15:03 48.955665 -122.455204 41 110ft 0kts
29-Aug-20 15:04 48.955665 -122.455204 41 110ft 0kts
29-Aug-20 15:05 48.955665 -122.455204 41 110ft 0kts
29-Aug-20 15:06 48.955665 -122.455204 41 110ft 0kts
29-Aug-20 15:07 48.955665 -122.455204 41 110ft 0kts
29-Aug-20 15:08 48.955665 -122.455204 41 110ft 0kts
29-Aug-20 15:09 48.955665 -122.455204 41 110ft 0kts
29-Aug-20 15:10 48.955665 -122.455204 41 110ft 0kts
29-Aug-20 15:11 48.955665 -122.455204 41 110ft 0kts
29-Aug-20 15:12 48.955665 -122.455204 41 110ft 0kts
29-Aug-20 15:13 48.955665 -122.455204 41 110ft 0kts
29-Aug-20 15:14 48.955665 -122.455204 41 110ft 0kts
29-Aug-20 15:15 48.955665 -122.455204 41 110ft 0kts
29-Aug-20 15:16 48.955942 -122.460211 269 114ft 81kts
29-Aug-20 15:17 48.960409 -122.498598 262 958ft 112kts
29-Aug-20 15:18 48.939828 -122.532467 197 1212ft 101kts
29-Aug-20 15:19 48.940051 -122.515765 311 1207ft 116kts
29-Aug-20 15:20 48.931194 -122.558993 225 1296ft 143kts
29-Aug-20 15:21 48.902620 -122.548984 46 1456ft 154kts
29-Aug-20 15:22 48.942735 -122.555284 347 1605ft 150kts
29-Aug-20 15:23 48.941956 -122.583761 153 1519ft 156kts
29-Aug-20 15:24 48.906960 -122.543345 102 1484ft 163kts
29-Aug-20 15:25 48.930630 -122.540895 301 1423ft 163kts
29-Aug-20 15:26 48.911775 -122.576620 176 753ft 163kts
29-Aug-20 15:27 48.910071 -122.568593 262 1017ft 124kts
29-Aug-20 15:28 48.898697 -122.621561 256 1609ft 129kts
29-Aug-20 15:29 48.890853 -122.676526 258 2198ft 135kts
29-Aug-20 15:30 48.883620 -122.728384 256 2266ft 145kts
29-Aug-20 15:31 48.874308 -122.797827 258 2272ft 158kts
29-Aug-20 15:32 48.876232 -122.860980 311 2277ft 159kts
29-Aug-20 15:33 48.907559 -122.909921 312 2269ft 161kts
29-Aug-20 15:34 48.930276 -122.967313 284 1962ft 145kts
29-Aug-20 15:35 48.941102 -123.020014 283 1166ft 120kts
29-Aug-20 15:36 48.957023 -123.069915 325 979ft 150kts
29-Aug-20 15:37 48.997668 -123.076688 287 892ft 108kts
29-Aug-20 15:38 48.977713 -123.085288 179 386ft 76kts
29-Aug-20 15:39 48.980010 -123.079337 352 40ft 88kts
29-Aug-20 15:40 48.974294 -123.086937 174 841ft 136kts
29-Aug-20 15:41 48.944701 -123.056075 97 1205ft 155kts
29-Aug-20 15:42 48.931888 -122.995441 108 1624ft 150kts
29-Aug-20 15:43 48.910033 -122.952259 169 2302ft 133kts
29-Aug-20 15:44 48.868456 -122.947085 176 2276ft 158kts
29-Aug-20 15:45 48.825367 -122.941757 175 2272ft 162kts
29-Aug-20 15:46 48.782355 -122.956467 208 2274ft 161kts
29-Aug-20 15:47 48.742228 -122.985772 207 1828ft 168kts
29-Aug-20 15:48 48.708070 -123.022695 198 904ft 144kts
29-Aug-20 15:50 48.705348 -123.014042 339 323ft 89kts
29-Aug-20 15:51 48.717421 -123.031163 179 935ft 90kts
29-Aug-20 15:52 48.718392 -122.997541 72 910ft 115kts
29-Aug-20 15:53 48.712811 -122.945337 107 1387ft 149kts
29-Aug-20 15:54 48.710787 -122.906860 321 2072ft 145kts
29-Aug-20 15:55 48.718832 -122.965993 265 2418ft 147kts
29-Aug-20 15:56 48.686101 -122.991147 199 2320ft 148kts
29-Aug-20 15:57 48.646488 -123.013327 194 1735ft 151kts
29-Aug-20 15:58 48.607377 -123.006714 141 1166ft 159kts
29-Aug-20 15:59 48.622447 -123.013186 298 1328ft 133kts
29-Aug-20 16:00 48.609651 -123.021959 133 906ft 92kts
29-Aug-20 16:01 48.610566 -122.991309 6 984ft 114kts
29-Aug-20 16:02 48.632542 -122.990865 73 1984ft 130kts
29-Aug-20 16:03 48.618294 -122.952955 197 3070ft 112kts
29-Aug-20 16:04 48.604150 -122.996519 139 2842ft 164kts
29-Aug-20 16:05 48.602676 -122.996031 128 2908ft 148kts
29-Aug-20 16:06 48.617141 -122.941370 7 2401ft 187kts
29-Aug-20 16:07 48.598116 -122.962749 147 1231ft 164kts
29-Aug-20 16:08 48.619733 -122.950283 37 335ft 108kts
29-Aug-20 16:08 48.631347 -122.964062 242 753ft 133kts
29-Aug-20 16:10 48.655253 -122.998931 336 1606ft 132kts
29-Aug-20 16:11 48.682314 -122.974474 46 1892ft 113kts
29-Aug-20 16:11 48.695104 -122.936928 62 1364ft 100kts
29-Aug-20 16:12 48.708616 -122.905494 52 855ft 89kts
29-Aug-20 16:14 48.706854 -122.910635 181 115ft 86kts
29-Aug-20 16:14 48.709039 -122.900852 356 922ft 104kts
29-Aug-20 16:15 48.724682 -122.910887 171 513ft 92kts
29-Aug-20 16:16 48.707260 -122.910174 114 30ft 12kts
29-Aug-20 16:17 48.706205 -122.909378 178 32ft 0kts
29-Aug-20 16:18 48.706205 -122.909378 178 32ft 0kts
29-Aug-20 16:19 48.706205 -122.909378 178 32ft 0kts
29-Aug-20 16:20 48.706205 -122.909378 178 32ft 0kts
29-Aug-20 16:21 48.706206 -122.909378 178 32ft 0kts
29-Aug-20 16:22 48.706206 -122.909378 178 32ft 0kts
29-Aug-20 16:23 48.706206 -122.909378 178 32ft 0kts
29-Aug-20 16:24 48.706206 -122.909378 178 32ft 0kts
29-Aug-20 16:25 48.706206 -122.909378 178 32ft 0kts
29-Aug-20 16:26 48.706206 -122.909378 178 32ft 0kts
29-Aug-20 16:27 48.706206 -122.909378 178 32ft 0kts
29-Aug-20 16:28 48.706206 -122.909378 178 32ft 0kts
29-Aug-20 16:29 48.706206 -122.909378 178 32ft 0kts
29-Aug-20 16:30 48.706206 -122.909378 178 32ft 0kts

Navigation Log

Ident Type
Flight plan parsing failed, navigation log unavailable